createdAt,value
2023-10-03T00:01:09.981Z,62937.94
2023-10-03T00:03:14.804Z,62937.94
2023-10-03T00:05:20.637Z,62942.59
2023-10-03T00:07:24.018Z,62949.00
2023-10-03T00:09:29.578Z,62952.72
2023-10-03T00:11:34.490Z,62952.72
2023-10-03T00:13:37.955Z,62942.81
2023-10-03T00:15:44.972Z,62940.75
2023-10-03T00:17:49.245Z,62941.88
2023-10-03T00:19:52.806Z,62948.44
2023-10-03T00:21:56.258Z,62951.59
2023-10-03T00:23:59.627Z,62943.94
2023-10-03T00:26:07.264Z,62951.06
2023-10-03T00:28:12.099Z,62939.63
2023-10-03T00:30:16.321Z,62942.47
2023-10-03T00:32:19.921Z,62944.13
2023-10-03T00:34:24.354Z,62948.44
2023-10-03T00:36:28.042Z,62951.28
2023-10-03T00:38:32.019Z,62944.50
2023-10-03T00:40:37.124Z,62945.84
2023-10-03T00:42:42.116Z,62952.97
2023-10-03T00:44:46.204Z,62948.22
2023-10-03T00:46:49.730Z,62951.28
2023-10-03T00:48:52.623Z,62955.78
2023-10-03T00:50:57.100Z,62947.31
2023-10-03T00:53:06.289Z,62952.16
2023-10-03T00:55:12.578Z,62950.13
2023-10-03T00:57:16.198Z,62951.97
2023-10-03T00:59:21.143Z,62949.00
2023-10-03T01:01:28.394Z,62949.00
2023-10-03T01:03:34.293Z,62952.41
2023-10-03T01:05:39.284Z,62964.94
2023-10-03T01:07:42.996Z,62955.22
2023-10-03T01:09:46.421Z,62953.72
2023-10-03T01:11:53.279Z,62967.03
2023-10-03T01:14:00.241Z,62975.69
2023-10-03T01:16:07.016Z,62971.75
2023-10-03T01:18:15.253Z,62960.28
2023-10-03T01:20:25.638Z,62979.22
2023-10-03T01:22:29.296Z,62969.50
2023-10-03T01:24:34.291Z,62984.28
2023-10-03T01:26:36.912Z,62936.81
2023-10-03T01:28:41.054Z,62978.72
2023-10-03T01:30:44.817Z,62987.66
2023-10-03T01:32:53.260Z,62984.72
2023-10-03T01:34:55.828Z,62991.28
2023-10-03T01:36:59.457Z,62990.69
2023-10-03T01:39:04.216Z,62990.34
2023-10-03T01:41:09.256Z,62993.16
2023-10-03T01:43:12.696Z,62999.13
2023-10-03T01:45:18.491Z,62995.97
2023-10-03T01:47:22.353Z,62996.53
2023-10-03T01:49:26.740Z,63000.28
2023-10-03T01:51:30.189Z,63002.31
2023-10-03T01:53:33.694Z,63007.97
2023-10-03T01:55:37.380Z,63001.03
2023-10-03T01:57:42.798Z,63002.94
2023-10-03T01:59:46.343Z,63009.28
2023-10-03T02:01:52.808Z,63004.63
2023-10-03T02:05:59.667Z,63004.41
2023-10-03T02:08:08.851Z,63009.66
2023-10-03T02:10:13.844Z,62998.78
2023-10-03T02:12:17.314Z,63006.06
2023-10-03T02:14:22.069Z,62996.53
2023-10-03T02:16:26.001Z,62996.53
2023-10-03T02:18:30.257Z,62998.59
2023-10-03T02:20:39.631Z,62992.03
2023-10-03T02:22:43.058Z,62985.63
2023-10-03T02:24:46.944Z,62983.00
2023-10-03T02:26:50.512Z,62991.28
2023-10-03T02:28:53.966Z,62996.13
2023-10-03T02:31:00.644Z,62991.47
2023-10-03T02:33:11.245Z,62997.81
2023-10-03T02:35:15.756Z,62989.56
2023-10-03T02:37:19.404Z,63002.50
2023-10-03T02:39:26.397Z,62995.97
2023-10-03T02:41:31.940Z,62999.00
2023-10-03T02:43:39.999Z,63001.41
2023-10-03T02:45:44.494Z,62995.97
2023-10-03T02:47:50.141Z,62997.47
2023-10-03T02:49:53.944Z,63006.13
2023-10-03T02:52:00.974Z,63013.22
2023-10-03T02:54:04.974Z,63020.19
2023-10-03T02:56:09.683Z,63022.06
2023-10-03T02:58:15.912Z,63024.69
2023-10-03T03:00:20.854Z,63030.91
2023-10-03T03:02:23.586Z,63033.53
2023-10-03T03:04:30.863Z,63033.72
2023-10-03T03:06:34.373Z,63035.41
2023-10-03T03:08:41.306Z,63045.34
2023-10-03T03:10:44.774Z,63048.72
2023-10-03T03:12:48.161Z,63048.19
2023-10-03T03:14:53.615Z,63051.00
2023-10-03T03:16:57.347Z,63041.41
2023-10-03T03:19:01.707Z,63057.78
2023-10-03T03:21:10.374Z,63056.63
2023-10-03T03:23:15.136Z,63054.97
2023-10-03T03:25:25.967Z,63050.84
2023-10-03T03:27:33.733Z,63052.91
2023-10-03T03:29:37.802Z,63055.88
2023-10-03T03:31:44.013Z,63060.75
2023-10-03T03:33:48.153Z,63048.94
2023-10-03T03:35:50.636Z,63042.19
2023-10-03T03:37:57.712Z,63052.34
2023-10-03T03:40:13.555Z,63050.06
2023-10-03T03:42:18.327Z,63051.22
2023-10-03T03:44:22.340Z,63051.00
2023-10-03T03:46:25.917Z,63049.84
2023-10-03T03:48:29.498Z,63046.47
2023-10-03T03:50:35.432Z,63045.00
2023-10-03T03:52:41.942Z,63049.28
2023-10-03T03:54:46.702Z,63054.75
2023-10-03T03:56:50.504Z,63051.00
2023-10-03T03:58:55.129Z,63056.22
2023-10-03T04:00:58.568Z,63041.97
2023-10-03T04:03:06.501Z,63053.25
2023-10-03T04:05:13.179Z,63044.78
2023-10-03T04:07:17.911Z,63001.03
2023-10-03T04:09:21.351Z,63054.97
2023-10-03T04:11:26.405Z,63054.19
2023-10-03T04:13:31.650Z,63051.00
2023-10-03T04:15:35.131Z,63049.28
2023-10-03T04:17:38.644Z,63047.81
2023-10-03T04:19:42.235Z,63053.03
2023-10-03T04:21:48.172Z,63048.94
2023-10-03T04:23:57.462Z,63050.06
2023-10-03T04:26:05.549Z,63055.88
2023-10-03T04:28:12.840Z,63019.84
2023-10-03T04:30:16.174Z,63043.28
2023-10-03T04:32:19.898Z,63039.72
2023-10-03T04:34:23.309Z,63037.47
2023-10-03T04:36:27.581Z,63032.97
2023-10-03T04:38:31.165Z,63022.81
2023-10-03T04:40:36.320Z,63014.56
2023-10-03T04:42:39.565Z,63021.31
2023-10-03T04:44:44.335Z,63001.41
2023-10-03T04:46:49.365Z,62996.31
2023-10-03T04:48:52.851Z,62998.94
2023-10-03T04:50:57.478Z,62978.09
2023-10-03T04:53:01.407Z,62981.34
2023-10-03T04:55:05.321Z,62977.72
2023-10-03T04:57:08.689Z,62980.00
2023-10-03T04:59:12.075Z,62989.00
2023-10-03T05:01:17.208Z,62993.38
2023-10-03T05:03:21.233Z,63002.13
2023-10-03T05:05:26.462Z,63006.84
2023-10-03T05:07:29.979Z,63016.97
2023-10-03T05:09:34.264Z,63020.00
2023-10-03T05:11:37.715Z,63019.44
2023-10-03T05:13:44.378Z,63020.78
2023-10-03T05:15:47.769Z,63027.31
2023-10-03T05:17:52.520Z,63026.19
2023-10-03T05:19:56.186Z,63030.72
2023-10-03T05:21:59.787Z,63028.44
2023-10-03T05:24:05.059Z,63028.63
2023-10-03T05:26:08.654Z,63044.22
2023-10-03T05:28:12.413Z,63039.72
2023-10-03T05:30:16.443Z,63059.66
2023-10-03T05:32:22.657Z,63071.50
2023-10-03T05:34:27.350Z,63095.34
2023-10-03T05:36:30.765Z,63099.47
2023-10-03T05:38:34.186Z,63107.19
2023-10-03T05:40:37.981Z,63118.47
2023-10-03T05:42:48.206Z,63118.28
2023-10-03T05:44:52.544Z,63129.38
2023-10-03T05:46:57.092Z,63135.94
2023-10-03T05:49:00.902Z,63132.75
2023-10-03T05:51:07.593Z,63134.09
2023-10-03T05:53:11.131Z,63136.00
2023-10-03T05:55:15.135Z,63146.31
2023-10-03T05:57:18.500Z,63145.16
2023-10-03T05:59:22.152Z,63158.31
2023-10-03T06:01:25.537Z,63156.88
2023-10-03T06:03:28.979Z,63158.56
2023-10-03T06:05:33.102Z,63162.53
2023-10-03T06:07:38.411Z,63170.22
2023-10-03T06:09:41.749Z,63179.78
2023-10-03T06:11:45.292Z,63173.59
2023-10-03T06:13:48.695Z,63174.38
2023-10-03T06:15:53.295Z,63182.25
2023-10-03T06:17:56.877Z,63158.94
2023-10-03T06:20:00.301Z,63183.19
2023-10-03T06:22:04.527Z,63181.50
2023-10-03T06:24:09.590Z,63181.88
2023-10-03T06:26:13.060Z,63177.75
2023-10-03T06:28:16.489Z,63189.38
2023-10-03T06:30:20.067Z,63184.34
2023-10-03T06:32:23.598Z,63152.75
2023-10-03T06:34:27.403Z,63178.09
2023-10-03T06:36:30.832Z,63179.44
2023-10-03T06:38:34.363Z,63186.94
2023-10-03T06:40:42.115Z,63178.16
2023-10-03T06:42:45.547Z,63183.00
2023-10-03T06:44:49.264Z,63171.72
2023-10-03T06:46:54.073Z,63173.59
2023-10-03T06:48:57.636Z,63170.00
2023-10-03T06:51:05.398Z,63165.13
2023-10-03T06:53:09.940Z,63161.75
2023-10-03T06:55:16.894Z,63167.56
2023-10-03T06:57:21.800Z,63156.31
2023-10-03T06:59:25.292Z,63159.84
2023-10-03T07:01:28.915Z,63157.81
2023-10-03T07:03:32.440Z,63163.47
2023-10-03T07:05:35.979Z,63152.38
2023-10-03T07:07:40.748Z,63146.53
2023-10-03T07:09:44.670Z,63145.16
2023-10-03T07:11:50.075Z,63137.47
2023-10-03T07:13:55.362Z,63138.41
2023-10-03T07:15:59.804Z,63127.91
2023-10-03T07:18:05.849Z,63124.28
2023-10-03T07:20:11.753Z,63120.34
2023-10-03T07:22:15.144Z,63119.44
2023-10-03T07:24:19.131Z,63115.84
2023-10-03T07:26:22.696Z,63106.66
2023-10-03T07:28:26.193Z,63103.06
2023-10-03T07:30:31.000Z,63105.13
2023-10-03T07:32:35.426Z,63094.25
2023-10-03T07:34:43.496Z,63097.25
2023-10-03T07:36:46.908Z,63091.25
2023-10-03T07:38:49.649Z,63079.97
2023-10-03T07:40:53.169Z,63075.63
2023-10-03T07:42:56.608Z,63062.13
2023-10-03T07:47:04.918Z,63027.69
2023-10-03T07:49:09.123Z,63069.81
2023-10-03T07:51:17.360Z,63070.38
2023-10-03T07:53:20.888Z,63068.69
2023-10-03T07:55:26.284Z,63070.72
2023-10-03T07:57:30.113Z,63082.38
2023-10-03T07:59:33.439Z,63071.91
2023-10-03T08:01:57.435Z,63077.50
2023-10-03T08:04:09.382Z,63079.00
2023-10-03T08:06:16.129Z,63071.28
2023-10-03T08:08:23.367Z,63080.91
2023-10-03T08:10:30.125Z,63085.59
2023-10-03T08:12:39.317Z,63083.72
2023-10-03T08:14:43.348Z,63082.56
2023-10-03T08:16:48.453Z,63092.72
2023-10-03T08:18:58.816Z,63052.16
2023-10-03T08:21:05.005Z,63102.53
2023-10-03T08:23:10.629Z,63096.66
2023-10-03T08:25:13.120Z,63105.34
2023-10-03T08:27:20.524Z,63109.09
2023-10-03T08:29:24.566Z,63112.09
2023-10-03T08:31:28.677Z,63092.16
2023-10-03T08:33:37.391Z,63121.47
2023-10-03T08:35:41.160Z,63095.19
2023-10-03T08:37:45.030Z,63117.19
2023-10-03T08:39:49.869Z,63124.66
2023-10-03T08:42:02.013Z,63120.34
2023-10-03T08:44:13.418Z,63115.09
2023-10-03T08:46:17.843Z,63116.81
2023-10-03T08:48:26.177Z,63114.91
2023-10-03T08:50:35.740Z,63117.53
2023-10-03T08:52:48.104Z,63104.56
2023-10-03T08:54:56.248Z,63106.66
2023-10-03T08:57:00.513Z,63103.63
2023-10-03T08:59:09.130Z,63110.19
2023-10-03T09:01:18.836Z,63109.63
2023-10-03T09:03:21.914Z,63090.63
2023-10-03T09:05:25.763Z,63107.00
2023-10-03T09:07:45.634Z,63101.59
2023-10-03T09:09:49.294Z,63103.28
2023-10-03T09:11:57.794Z,63101.78
2023-10-03T09:14:02.566Z,63109.09
2023-10-03T09:16:09.700Z,63108.53
2023-10-03T09:18:16.813Z,63113.59
2023-10-03T09:20:26.023Z,63105.47
2023-10-03T09:22:32.767Z,63099.34
2023-10-03T09:24:44.597Z,63113.59
2023-10-03T09:26:51.940Z,63109.63
2023-10-03T09:28:59.782Z,63111.34
2023-10-03T09:31:09.276Z,63114.34
2023-10-03T09:33:17.933Z,63114.72
2023-10-03T09:35:22.381Z,63109.63
2023-10-03T09:37:31.696Z,63091.44
2023-10-03T09:39:40.893Z,63109.63
2023-10-03T09:41:44.669Z,63111.34
2023-10-03T09:43:50.467Z,63104.41
2023-10-03T09:45:57.308Z,63103.28
2023-10-03T09:48:07.497Z,63106.63
2023-10-03T09:50:11.621Z,63104.91
2023-10-03T09:52:24.036Z,63110.56
2023-10-03T09:54:31.906Z,63101.38
2023-10-03T09:56:41.480Z,63095.19
2023-10-03T09:58:47.868Z,63104.63
2023-10-03T10:00:53.054Z,63103.63
2023-10-03T10:03:04.821Z,63100.25
2023-10-03T10:05:20.747Z,63105.34
2023-10-03T10:07:30.474Z,63102.53
2023-10-03T10:09:40.122Z,63086.72
2023-10-03T10:12:20.809Z,63105.91
2023-10-03T10:14:24.703Z,63111.34
2023-10-03T10:16:29.626Z,63111.53
2023-10-03T10:19:02.554Z,63105.72
2023-10-03T10:21:24.397Z,63125.06
2023-10-03T10:23:36.171Z,63115.28
2023-10-03T10:25:43.447Z,63110.41
2023-10-03T10:27:47.336Z,63109.63
2023-10-03T10:30:01.728Z,63091.44
2023-10-03T10:32:18.863Z,63088.78
2023-10-03T10:34:45.135Z,63084.47
2023-10-03T10:37:02.768Z,63080.88
2023-10-03T10:39:06.523Z,63050.28
2023-10-03T10:41:19.143Z,63054.03
2023-10-03T10:43:22.556Z,63055.53
2023-10-03T10:45:25.091Z,63071.66
2023-10-03T10:47:29.582Z,63067.91
2023-10-03T10:50:18.178Z,63055.72
2023-10-03T10:52:24.168Z,63055.34
2023-10-03T10:54:27.730Z,63057.63
2023-10-03T10:56:33.278Z,63061.53
2023-10-03T10:58:46.953Z,63043.09
2023-10-03T11:00:59.499Z,63054.03
2023-10-03T11:03:03.594Z,63056.22
2023-10-03T11:05:11.948Z,63025.47
2023-10-03T11:07:22.554Z,62944.34
2023-10-03T11:09:26.908Z,62945.78
2023-10-03T11:11:40.038Z,62909.59
2023-10-03T11:13:47.227Z,62894.19
2023-10-03T11:15:51.384Z,62884.06
2023-10-03T11:17:54.926Z,62876.41
2023-10-03T11:19:58.531Z,62854.66
2023-10-03T11:22:05.230Z,62854.25
2023-10-03T11:24:19.521Z,62846.00
2023-10-03T11:26:22.929Z,62848.19
2023-10-03T11:28:29.429Z,62825.38
2023-10-03T11:30:33.106Z,62822.56
2023-10-03T11:32:37.154Z,62822.38
2023-10-03T11:34:41.300Z,62825.91
2023-10-03T11:36:46.061Z,62827.44
2023-10-03T11:38:51.493Z,62825.16
2023-10-03T11:40:54.939Z,62822.16
2023-10-03T11:43:04.040Z,62821.44
2023-10-03T11:45:10.357Z,62829.31
2023-10-03T11:47:23.771Z,62819.75
2023-10-03T11:49:28.608Z,62821.97
2023-10-03T11:51:31.128Z,62812.66
2023-10-03T11:53:34.541Z,62819.00
2023-10-03T11:55:42.040Z,62806.06
2023-10-03T11:57:46.099Z,62814.28
2023-10-03T11:59:49.506Z,62813.56
2023-10-03T12:01:58.113Z,62826.44
2023-10-03T12:04:02.025Z,62826.03
2023-10-03T12:06:05.687Z,62812.94
2023-10-03T12:08:08.280Z,62821.19
2023-10-03T12:10:13.268Z,62814.28
2023-10-03T12:12:18.114Z,62803.22
2023-10-03T12:14:21.535Z,62798.19
2023-10-03T12:16:25.912Z,62800.03
2023-10-03T12:18:29.471Z,62789.19
2023-10-03T12:20:35.396Z,62788.78
2023-10-03T12:22:42.727Z,62783.38
2023-10-03T12:24:46.109Z,62782.22
2023-10-03T12:26:49.649Z,62772.53
2023-10-03T12:28:54.601Z,62774.22
2023-10-03T12:30:58.067Z,62773.25
2023-10-03T12:33:01.678Z,62716.25
2023-10-03T12:35:05.752Z,62767.63
2023-10-03T12:37:12.628Z,62764.03
2023-10-03T12:39:19.486Z,62750.75
2023-10-03T12:41:30.064Z,62744.22
2023-10-03T12:43:35.001Z,62743.31
2023-10-03T12:45:40.048Z,62739.31
2023-10-03T12:47:48.266Z,62740.66
2023-10-03T12:49:51.879Z,62740.44
2023-10-03T12:51:56.033Z,62735.25
2023-10-03T12:53:59.875Z,62741.56
2023-10-03T12:56:03.285Z,62742.53
2023-10-03T12:58:06.889Z,62737.47
2023-10-03T13:00:13.519Z,62741.75
2023-10-03T13:02:18.487Z,62733.31
2023-10-03T13:04:23.416Z,62727.69
2023-10-03T13:06:27.717Z,62717.25
2023-10-03T13:08:31.946Z,62708.59
2023-10-03T13:10:35.853Z,62704.88
2023-10-03T13:12:42.513Z,62712.53
2023-10-03T13:14:46.162Z,62727.34
2023-10-03T13:16:48.619Z,62730.50
2023-10-03T13:18:54.676Z,62738.03
2023-10-03T13:20:58.676Z,62745.16
2023-10-03T13:23:02.326Z,62756.72
2023-10-03T13:25:06.715Z,62748.09
2023-10-03T13:27:10.696Z,62746.81
2023-10-03T13:29:14.153Z,62746.81
2023-10-03T13:31:17.668Z,62700.94
2023-10-03T13:33:21.151Z,62728.91
2023-10-03T13:35:26.388Z,62728.47
2023-10-03T13:37:30.563Z,62730.50
2023-10-03T13:39:33.883Z,62727.16
2023-10-03T13:41:39.429Z,62724.88
2023-10-03T13:43:42.910Z,62729.19
2023-10-03T13:45:47.000Z,62725.66
2023-10-03T13:47:50.534Z,62731.63
2023-10-03T13:49:54.153Z,62745.69
2023-10-03T13:52:01.191Z,62754.13
2023-10-03T13:54:06.328Z,62796.66
2023-10-03T13:56:09.943Z,62799.66
2023-10-03T13:58:13.316Z,62818.06
2023-10-03T14:00:17.377Z,62858.75
2023-10-03T14:02:23.404Z,62852.78
2023-10-03T14:04:26.908Z,62937.94
2023-10-03T14:06:31.420Z,62934.56
2023-10-03T14:08:36.428Z,62942.47
2023-10-03T14:10:44.768Z,62926.81
2023-10-03T14:12:48.504Z,62918.81
2023-10-03T14:14:52.016Z,62903.19
2023-10-03T14:16:59.473Z,62918.59
2023-10-03T14:19:03.165Z,62924.03
2023-10-03T14:21:11.393Z,62891.94
2023-10-03T14:23:15.013Z,62870.22
2023-10-03T14:25:21.437Z,62889.31
2023-10-03T14:27:24.860Z,62934.00
2023-10-03T14:29:29.361Z,62963.09
2023-10-03T14:31:31.929Z,62951.47
2023-10-03T14:33:35.455Z,62980.00
2023-10-03T14:35:41.724Z,62928.72
2023-10-03T14:37:48.034Z,62897.34
2023-10-03T14:39:51.431Z,62865.13
2023-10-03T14:41:57.405Z,62836.63
2023-10-03T14:44:04.932Z,62816.19
2023-10-03T14:46:08.731Z,62803.03
2023-10-03T14:48:12.348Z,62785.03
2023-10-03T14:50:15.862Z,62783.72
2023-10-03T14:52:19.455Z,62785.97
2023-10-03T14:54:22.912Z,62779.78
2023-10-03T14:56:26.373Z,62780.41
2023-10-03T14:58:36.512Z,62778.50
2023-10-03T15:00:42.552Z,62781.88
2023-10-03T15:02:46.396Z,62724.94
2023-10-03T15:04:51.187Z,62770.41
2023-10-03T15:06:54.818Z,62802.13
2023-10-03T15:08:59.076Z,62836.06
2023-10-03T15:11:03.946Z,62868.31
2023-10-03T15:13:08.013Z,62874.34
2023-10-03T15:15:14.717Z,62909.03
2023-10-03T15:17:18.210Z,62908.09
2023-10-03T15:19:21.604Z,62933.94
2023-10-03T15:21:25.679Z,62888.75
2023-10-03T15:23:31.069Z,62849.59
2023-10-03T15:25:35.254Z,62829.09
2023-10-03T15:27:38.116Z,62811.69
2023-10-03T15:29:42.036Z,62787.88
2023-10-03T15:31:48.569Z,62785.25
2023-10-03T15:33:53.609Z,62786.75
2023-10-03T15:35:57.668Z,62763.91
2023-10-03T15:38:01.057Z,62760.09
2023-10-03T15:40:05.800Z,62749.44
2023-10-03T15:42:09.258Z,62747.38
2023-10-03T15:44:12.966Z,62735.56
2023-10-03T15:46:17.385Z,62724.31
2023-10-03T15:48:23.649Z,62728.69
2023-10-03T15:50:28.342Z,62723.22
2023-10-03T15:52:31.934Z,62709.16
2023-10-03T15:54:36.468Z,62691.75
2023-10-03T15:56:39.909Z,62679.75
2023-10-03T15:58:43.372Z,62664.44
2023-10-03T16:00:46.919Z,62661.41
2023-10-03T16:02:50.709Z,62647.78
2023-10-03T16:04:56.571Z,62654.47
2023-10-03T16:07:00.014Z,62634.50
2023-10-03T16:09:09.434Z,62659.50
2023-10-03T16:11:13.935Z,62660.84
2023-10-03T16:13:19.345Z,62644.38
2023-10-03T16:15:23.014Z,62634.69
2023-10-03T16:17:26.546Z,62634.25
2023-10-03T16:19:32.444Z,62631.09
2023-10-03T16:21:38.720Z,62629.84
2023-10-03T16:23:42.665Z,62624.41
2023-10-03T16:25:47.263Z,62636.91
2023-10-03T16:27:51.219Z,62623.44
2023-10-03T16:29:54.951Z,62627.50
2023-10-03T16:31:58.402Z,62623.03
2023-10-03T16:34:02.250Z,62630.53
2023-10-03T16:36:07.094Z,62623.81
2023-10-03T16:38:13.841Z,62608.81
2023-10-03T16:40:18.469Z,62606.22
2023-10-03T16:42:21.976Z,62599.28
2023-10-03T16:44:25.638Z,62606.72
2023-10-03T16:46:29.163Z,62607.16
2023-10-03T16:48:33.187Z,62607.28
2023-10-03T16:50:38.068Z,62600.00
2023-10-03T16:52:41.357Z,62604.06
2023-10-03T16:54:47.872Z,62609.53
2023-10-03T16:56:51.321Z,62602.66
2023-10-03T16:58:54.706Z,62607.84
2023-10-03T17:00:59.017Z,62611.63
2023-10-03T17:03:02.502Z,62614.13
2023-10-03T17:05:08.484Z,62623.81
2023-10-03T17:07:12.082Z,62606.94
2023-10-03T17:09:14.757Z,62594.03
2023-10-03T17:11:19.614Z,62587.66
2023-10-03T17:13:22.897Z,62593.47
2023-10-03T17:15:26.342Z,62594.97
2023-10-03T17:17:29.793Z,62580.78
2023-10-03T17:19:33.292Z,62580.00
2023-10-03T17:21:37.262Z,62573.84
2023-10-03T17:23:41.863Z,62563.19
2023-10-03T17:25:45.834Z,62578.66
2023-10-03T17:27:50.805Z,62568.56
2023-10-03T17:29:54.289Z,62566.53
2023-10-03T17:32:00.822Z,62562.47
2023-10-03T17:34:04.993Z,62567.69
2023-10-03T17:36:08.912Z,62564.84
2023-10-03T17:38:13.167Z,62572.50
2023-10-03T17:40:18.263Z,62565.41
2023-10-03T17:42:21.342Z,62569.72
2023-10-03T17:44:26.172Z,62562.53
2023-10-03T17:46:30.032Z,62564.44
2023-10-03T17:48:33.979Z,62553.84
2023-10-03T17:50:37.627Z,62545.22
2023-10-03T17:52:40.780Z,62538.13
2023-10-03T17:54:44.653Z,62537.00
2023-10-03T17:56:47.150Z,62541.66
2023-10-03T17:58:51.097Z,62532.88
2023-10-03T18:00:55.920Z,62523.16
2023-10-03T18:02:59.521Z,62512.91
2023-10-03T18:05:06.864Z,62525.03
2023-10-03T18:07:10.918Z,62512.34
2023-10-03T18:09:16.176Z,62522.44
2023-10-03T18:11:20.651Z,62527.84
2023-10-03T18:13:24.028Z,62514.94
2023-10-03T18:15:27.900Z,62523.34
2023-10-03T18:17:34.160Z,62506.19
2023-10-03T18:19:37.887Z,62503.16
2023-10-03T18:21:41.352Z,62495.53
2023-10-03T18:23:45.290Z,62500.38
2023-10-03T18:25:49.074Z,62506.34
2023-10-03T18:27:52.535Z,62488.81
2023-10-03T18:29:55.980Z,62498.88
2023-10-03T18:32:00.728Z,62492.72
2023-10-03T18:34:05.793Z,62492.28
2023-10-03T18:36:09.485Z,62493.75
2023-10-03T18:38:12.884Z,62497.78
2023-10-03T18:40:18.361Z,62486.13
2023-10-03T18:42:22.191Z,62475.81
2023-10-03T18:44:25.676Z,62486.13
2023-10-03T18:46:29.038Z,62479.06
2023-10-03T18:48:34.486Z,62503.94
2023-10-03T18:50:39.245Z,62519.09
2023-10-03T18:52:42.749Z,62549.72
2023-10-03T18:54:46.295Z,62515.50
2023-10-03T18:56:50.204Z,62497.91
2023-10-03T18:58:54.955Z,62483.69
2023-10-03T19:00:58.979Z,62483.88
2023-10-03T19:03:02.525Z,62487.81
2023-10-03T19:05:05.864Z,62507.44
2023-10-03T19:07:13.129Z,62500.16
2023-10-03T19:09:18.005Z,62476.09
2023-10-03T19:11:21.705Z,62471.97
2023-10-03T19:13:25.179Z,62484.44
2023-10-03T19:15:29.839Z,62507.44
2023-10-03T19:17:33.629Z,62485.78
2023-10-03T19:19:37.313Z,62481.09
2023-10-03T19:21:41.598Z,62483.69
2023-10-03T19:23:48.252Z,62475.47
2023-10-03T19:25:52.145Z,62493.63
2023-10-03T19:27:56.647Z,62484.25
2023-10-03T19:29:59.357Z,62479.19
2023-10-03T19:32:04.133Z,62464.69
2023-10-03T19:34:08.072Z,62476.03
2023-10-03T19:36:12.624Z,62455.69
2023-10-03T19:38:16.247Z,62455.09
2023-10-03T19:40:21.654Z,62455.84
2023-10-03T19:42:25.394Z,62454.94
2023-10-03T19:44:28.917Z,62468.19
2023-10-03T19:46:32.330Z,62493.97
2023-10-03T19:48:35.988Z,62473.31
2023-10-03T19:50:42.009Z,62458.66
2023-10-03T19:52:45.914Z,62451.38
2023-10-03T19:54:49.247Z,62441.06
2023-10-03T19:56:54.683Z,62434.56
2023-10-03T19:58:59.518Z,62432.09
2023-10-03T20:01:03.104Z,62435.53
2023-10-03T20:03:06.888Z,62420.91
2023-10-03T20:05:11.275Z,62460.75
2023-10-03T20:07:16.326Z,62444.66
2023-10-03T20:09:19.771Z,62423.34
2023-10-03T20:11:23.243Z,62404.38
2023-10-03T20:13:27.993Z,62397.38
2023-10-03T20:15:31.821Z,62374.97
2023-10-03T20:17:35.338Z,62366.78
2023-10-03T20:19:40.366Z,62391.06
2023-10-03T20:21:43.830Z,62366.03
2023-10-03T20:23:47.295Z,62358.94
2023-10-03T20:25:51.042Z,62358.03
2023-10-03T20:27:54.800Z,62393.13
2023-10-03T20:29:59.637Z,62354.69
2023-10-03T20:32:03.971Z,62369.03
2023-10-03T20:34:07.613Z,62383.59
2023-10-03T20:36:13.515Z,62361.41
2023-10-03T20:38:17.016Z,62358.38
2023-10-03T20:40:20.693Z,62330.03
2023-10-03T20:42:25.202Z,62344.94
2023-10-03T20:44:28.734Z,62331.50
2023-10-03T20:46:33.632Z,62324.44
2023-10-03T20:48:36.105Z,62328.13
2023-10-03T20:50:39.544Z,62335.41
2023-10-03T20:52:42.993Z,62347.72
2023-10-03T20:54:46.852Z,62340.88
2023-10-03T20:56:50.620Z,62355.59
2023-10-03T20:58:55.605Z,62338.41
2023-10-03T21:00:59.021Z,62346.38
2023-10-03T21:03:04.412Z,62335.28
2023-10-03T21:05:13.962Z,62338.00
2023-10-03T21:07:17.767Z,62316.81
2023-10-03T21:09:22.972Z,62319.19
2023-10-03T21:11:27.853Z,62323.31
2023-10-03T21:13:35.237Z,62324.00
2023-10-03T21:15:39.566Z,62316.94
2023-10-03T21:17:42.077Z,62323.81
2023-10-03T21:19:47.031Z,62310.78
2023-10-03T21:21:52.820Z,62314.16
2023-10-03T21:23:56.241Z,62350.53
2023-10-03T21:26:07.243Z,62328.13
2023-10-03T21:28:10.830Z,62329.81
2023-10-03T21:30:14.590Z,62316.75
2023-10-03T21:32:18.156Z,62335.91
2023-10-03T21:34:21.765Z,62310.22
2023-10-03T21:36:27.229Z,62338.56
2023-10-03T21:38:30.185Z,62321.06
2023-10-03T21:40:33.616Z,62306.72
2023-10-03T21:42:36.260Z,62334.28
2023-10-03T21:44:39.635Z,62341.22
2023-10-03T21:46:42.983Z,62318.63
2023-10-03T21:48:46.488Z,62309.09
2023-10-03T21:50:49.859Z,62320.09
2023-10-03T21:52:55.484Z,62315.47
2023-10-03T21:54:57.861Z,62328.72
2023-10-03T21:57:01.199Z,62332.06
2023-10-03T21:59:04.887Z,62319.81
2023-10-03T22:01:09.517Z,62334.84
2023-10-03T22:03:12.119Z,62323.09
2023-10-03T22:05:15.541Z,62356.47
2023-10-03T22:07:18.938Z,62333.72
2023-10-03T22:09:22.798Z,62336.75
2023-10-03T22:11:26.908Z,62353.34
2023-10-03T22:13:31.983Z,62349.63
2023-10-03T22:15:35.713Z,62363.44
2023-10-03T22:17:39.132Z,62358.19
2023-10-03T22:19:42.565Z,62360.63
2023-10-03T22:21:47.193Z,62368.13
2023-10-03T22:23:50.512Z,62319.81
2023-10-03T22:25:55.548Z,62378.97
2023-10-03T22:28:00.044Z,62386.72
2023-10-03T22:30:03.540Z,62384.16
2023-10-03T22:32:06.939Z,62383.78
2023-10-03T22:34:10.446Z,62378.97
2023-10-03T22:36:12.854Z,62377.50
2023-10-03T22:38:16.448Z,62378.75
2023-10-03T22:40:19.911Z,62389.53
2023-10-03T22:42:24.739Z,62370.22
2023-10-03T22:44:28.178Z,62372.03
2023-10-03T22:46:31.628Z,62381.69
2023-10-03T22:48:35.307Z,62370.34
2023-10-03T22:50:38.875Z,62374.28
2023-10-03T22:52:42.397Z,62377.78
2023-10-03T22:54:45.892Z,62373.72
2023-10-03T22:56:49.247Z,62371.59
2023-10-03T22:58:54.604Z,62353.56
2023-10-03T23:00:59.840Z,62374.47
2023-10-03T23:03:03.936Z,62377.44
2023-10-03T23:05:08.204Z,62357.47
2023-10-03T23:07:10.817Z,62337.16
2023-10-03T23:09:14.189Z,62378.88
2023-10-03T23:11:17.548Z,62376.66
2023-10-03T23:13:20.904Z,62374.06
2023-10-03T23:15:25.708Z,62373.50
2023-10-03T23:17:29.242Z,62365.53
2023-10-03T23:19:32.866Z,62365.66
2023-10-03T23:21:36.341Z,62365.09
2023-10-03T23:23:39.729Z,62363.22
2023-10-03T23:25:43.426Z,62369.38
2023-10-03T23:27:45.868Z,62360.63
2023-10-03T23:29:49.158Z,62363.63
2023-10-03T23:31:53.963Z,62356.34
2023-10-03T23:33:57.628Z,62355.22
2023-10-03T23:36:01.802Z,62349.75
2023-10-03T23:38:05.488Z,62353.00
2023-10-03T23:40:11.949Z,62358.03
2023-10-03T23:42:15.400Z,62355.78
2023-10-03T23:44:19.659Z,62345.69
2023-10-03T23:46:23.917Z,62348.66
2023-10-03T23:48:30.946Z,62351.66
2023-10-03T23:50:34.931Z,62348.28
2023-10-03T23:52:39.429Z,62343.31
2023-10-03T23:54:42.832Z,62347.94
2023-10-03T23:56:51.289Z,62350.53
2023-10-03T23:58:55.011Z,62342.91
